Time;durP1;ratioP1;P1;durP2;ratioP2;P2;SDS_P1;SDS_P2;PMS_P1;PMS_P2;Temp;Humidity;BMP_temperature;BMP_pressure;BME280_temperature;BME280_humidity;BME280_pressure;Samples;Min_cycle;Max_cycle;Signal;HPM_P1;HPM_P2
2022/06/07 00:00:34;;;;;;;4.03;3.20;;;12.10;99.90;;;;;;5090571;28;20595;-58
2022/06/07 00:03:04;;;;;;;3.73;3.43;;;12.10;99.90;;;;;;5092449;28;20286;-58
2022/06/07 00:05:33;;;;;;;3.43;3.23;;;12.10;99.90;;;;;;5105341;28;20689;-59
2022/06/07 00:08:01;;;;;;;4.77;3.33;;;12.00;99.90;;;;;;5089419;28;20278;-58
2022/06/07 00:10:31;;;;;;;3.87;3.50;;;12.10;99.90;;;;;;5091551;28;20205;-58
2022/06/07 00:13:01;;;;;;;3.60;3.30;;;12.10;99.90;;;;;;5077410;28;20282;-59
2022/06/07 00:15:29;;;;;;;6.40;3.50;;;12.10;99.90;;;;;;5089316;28;20215;-59
2022/06/07 00:17:57;;;;;;;3.20;2.90;;;12.10;99.90;;;;;;5087208;28;20551;-59
2022/06/07 00:20:26;;;;;;;6.63;3.67;;;12.00;99.90;;;;;;5092664;28;20274;-58
2022/06/07 00:22:55;;;;;;;6.20;3.33;;;12.00;99.90;;;;;;5093723;28;20202;-59
2022/06/07 00:25:24;;;;;;;3.50;3.20;;;12.00;99.90;;;;;;5093040;28;20195;-59
2022/06/07 00:27:54;;;;;;;3.53;3.30;;;12.00;99.90;;;;;;5092642;28;20199;-58
2022/06/07 00:30:23;;;;;;;4.20;3.77;;;12.00;99.90;;;;;;5108512;28;20195;-58
2022/06/07 00:32:51;;;;;;;6.03;3.40;;;12.00;99.90;;;;;;5077358;28;20195;-59
2022/06/07 00:35:21;;;;;;;5.40;3.43;;;12.00;99.90;;;;;;5092630;28;20219;-58
2022/06/07 00:37:50;;;;;;;6.67;3.30;;;12.10;99.90;;;;;;5092272;28;20223;-58
2022/06/07 00:40:19;;;;;;;5.47;3.20;;;12.10;99.90;;;;;;5092388;28;20286;-58
2022/06/07 00:42:48;;;;;;;3.40;3.20;;;12.10;99.90;;;;;;5092619;28;20223;-58
2022/06/07 00:45:21;;;;;;;3.47;3.20;;;12.10;99.90;;;;;;5092670;28;20273;-59
2022/06/07 00:47:50;;;;;;;6.50;3.23;;;12.10;99.90;;;;;;5096001;28;20199;-58
2022/06/07 00:50:27;;;;;;;3.90;3.40;;;12.10;99.90;;;;;;5096191;28;20554;-58
2022/06/07 00:52:56;;;;;;;4.13;3.73;;;12.10;99.90;;;;;;5107498;28;20191;-58
2022/06/07 00:55:24;;;;;;;5.00;3.50;;;12.10;99.90;;;;;;5104866;28;20306;-59
2022/06/07 00:57:53;;;;;;;3.90;3.60;;;12.10;99.90;;;;;;5099546;28;20554;-58
2022/06/07 01:00:25;;;;;;;4.73;3.90;;;12.00;99.90;;;;;;5096449;28;20527;-58
2022/06/07 01:03:14;;;;;;;4.07;3.60;;;12.00;99.90;;;;;;5095905;28;20282;-59
2022/06/07 01:05:43;;;;;;;4.97;3.83;;;12.00;99.90;;;;;;5099488;28;20621;-58
2022/06/07 01:12:44;;;;;;;5.80;4.10;;;12.00;99.90;;;;;;5075951;28;20180;-59
2022/06/07 01:15:12;;;;;;;5.77;3.80;;;11.90;99.90;;;;;;5095452;28;20206;-59
2022/06/07 01:17:42;;;;;;;7.03;4.37;;;11.80;99.90;;;;;;5095730;28;20214;-59
2022/06/07 01:20:12;;;;;;;5.23;3.80;;;11.80;99.90;;;;;;5096024;28;20199;-58
2022/06/07 01:22:43;;;;;;;6.07;4.30;;;11.90;99.90;;;;;;5096345;28;20202;-58
2022/06/07 01:25:11;;;;;;;6.30;4.23;;;12.00;99.90;;;;;;5087878;28;20278;-58
2022/06/07 01:27:40;;;;;;;4.27;3.97;;;11.90;99.90;;;;;;5083840;28;20245;-58
2022/06/07 01:30:10;;;;;;;8.10;4.53;;;11.90;99.90;;;;;;5095693;28;20199;-58
2022/06/07 01:32:38;;;;;;;4.13;3.80;;;11.90;99.90;;;;;;5075841;28;20207;-58
2022/06/07 01:35:08;;;;;;;6.27;4.23;;;11.90;99.90;;;;;;5095145;28;20222;-58
2022/06/07 01:37:39;;;;;;;3.90;3.60;;;11.80;99.90;;;;;;5096418;28;20251;-58
2022/06/07 01:42:56;;;;;;;4.60;3.80;;;11.80;99.90;;;;;;5095857;28;20232;-58
2022/06/07 01:45:25;;;;;;;4.40;4.00;;;11.70;99.90;;;;;;5097251;28;20223;-58
2022/06/07 01:47:54;;;;;;;4.40;4.10;;;11.70;99.90;;;;;;5095591;28;20232;-59
2022/06/07 01:50:25;;;;;;;5.17;3.97;;;11.70;99.90;;;;;;5096377;28;20278;-58
2022/06/07 01:52:54;;;;;;;6.20;4.00;;;11.70;99.90;;;;;;5098703;28;20244;-58
2022/06/07 01:55:24;;;;;;;6.93;3.70;;;11.70;99.90;;;;;;5060693;28;20659;-58
2022/06/07 01:57:52;;;;;;;5.20;3.93;;;11.70;99.90;;;;;;5095216;28;20199;-58
2022/06/07 02:00:21;;;;;;;8.13;4.27;;;11.70;99.90;;;;;;5077191;28;20622;-58
2022/06/07 02:02:50;;;;;;;5.50;4.33;;;11.70;99.90;;;;;;5077243;28;20840;-58
2022/06/07 02:05:18;;;;;;;5.73;3.67;;;11.70;99.90;;;;;;5094826;28;20684;-58
2022/06/07 02:07:47;;;;;;;7.17;4.10;;;11.70;99.90;;;;;;5095121;28;20601;-58
2022/06/07 02:10:15;;;;;;;5.70;3.93;;;11.70;99.90;;;;;;5097360;28;20206;-59
2022/06/07 02:12:45;;;;;;;6.00;4.60;;;11.70;99.90;;;;;;5094990;28;20270;-58
2022/06/07 02:15:15;;;;;;;4.30;4.00;;;11.60;99.90;;;;;;5079305;28;20210;-58
2022/06/07 02:17:43;;;;;;;4.53;4.00;;;11.60;99.90;;;;;;5094750;28;20248;-58
2022/06/07 02:20:12;;;;;;;5.83;4.40;;;11.60;99.90;;;;;;5076473;28;20195;-58
2022/06/07 02:22:40;;;;;;;6.20;4.10;;;11.50;99.90;;;;;;5076921;28;20241;-58
2022/06/07 02:25:09;;;;;;;8.70;4.40;;;11.50;99.90;;;;;;5094551;28;20279;-58
2022/06/07 02:27:38;;;;;;;7.50;4.60;;;11.40;99.90;;;;;;5095747;28;20188;-58
2022/06/07 02:30:10;;;;;;;7.80;4.67;;;11.40;99.90;;;;;;5094247;28;20195;-58
2022/06/07 02:32:39;;;;;;;5.37;4.87;;;11.40;99.90;;;;;;5101421;28;20237;-58
2022/06/07 02:35:09;;;;;;;5.70;4.77;;;11.40;99.90;;;;;;5095350;28;20215;-58
2022/06/07 02:37:39;;;;;;;8.50;4.83;;;11.40;99.90;;;;;;5100068;28;20231;-58
2022/06/07 02:40:09;;;;;;;7.43;5.00;;;11.40;99.90;;;;;;5109601;28;20550;-58
2022/06/07 02:42:38;;;;;;;7.70;4.83;;;11.40;99.90;;;;;;5095929;28;20194;-58
2022/06/07 02:45:09;;;;;;;5.43;4.77;;;11.40;99.90;;;;;;5094056;28;20199;-59
2022/06/07 02:47:38;;;;;;;8.43;5.30;;;11.40;99.90;;;;;;5085273;28;20253;-58
2022/06/07 02:50:07;;;;;;;5.40;4.63;;;11.40;99.90;;;;;;5109968;28;20196;-58
2022/06/07 02:52:35;;;;;;;9.10;5.83;;;11.30;99.90;;;;;;5056052;28;20196;-58
2022/06/07 02:55:04;;;;;;;8.87;5.40;;;11.30;99.90;;;;;;5073799;28;20274;-58
2022/06/07 02:57:32;;;;;;;5.90;5.43;;;11.40;99.90;;;;;;5093777;28;20324;-58
2022/06/07 03:00:11;;;;;;;6.13;5.40;;;11.30;99.90;;;;;;5087545;28;20180;-59
2022/06/07 03:02:40;;;;;;;10.87;6.20;;;11.30;99.90;;;;;;5085367;28;20221;-59
2022/06/07 03:05:10;;;;;;;9.43;5.63;;;11.30;99.90;;;;;;5106138;28;20210;-59
2022/06/07 03:07:39;;;;;;;8.60;6.17;;;11.30;99.90;;;;;;5077299;28;20195;-58
2022/06/07 03:10:10;;;;;;;6.80;5.70;;;11.30;99.90;;;;;;5093370;28;20655;-58
2022/06/07 03:12:39;;;;;;;7.97;5.67;;;11.30;99.90;;;;;;5093802;28;20191;-58
2022/06/07 03:15:10;;;;;;;8.33;5.90;;;11.30;99.90;;;;;;5093750;28;20718;-58
2022/06/07 03:17:39;;;;;;;10.50;5.90;;;11.30;99.90;;;;;;5093931;28;20199;-59
2022/06/07 03:20:09;;;;;;;12.53;5.90;;;11.20;99.90;;;;;;5095841;28;20197;-58
2022/06/07 03:22:39;;;;;;;10.07;5.87;;;11.20;99.90;;;;;;5094529;28;20199;-58
2022/06/07 03:25:09;;;;;;;8.17;6.07;;;11.30;99.90;;;;;;5088691;28;20243;-58
2022/06/07 03:27:39;;;;;;;7.17;5.77;;;11.30;99.90;;;;;;5090502;28;20290;-58
2022/06/07 03:30:11;;;;;;;9.33;6.17;;;11.40;99.90;;;;;;5093479;28;20199;-58
2022/06/07 03:32:40;;;;;;;7.63;6.03;;;11.40;99.90;;;;;;5092823;28;20227;-59
2022/06/07 03:35:09;;;;;;;12.67;6.17;;;11.50;99.90;;;;;;5081523;28;20195;-58
2022/06/07 03:37:37;;;;;;;9.27;6.47;;;11.50;99.90;;;;;;5091030;28;20234;-58
2022/06/07 03:40:07;;;;;;;6.87;5.97;;;11.50;99.90;;;;;;5093907;28;20219;-59
2022/06/07 03:42:36;;;;;;;8.43;5.97;;;11.50;99.90;;;;;;5074866;28;20223;-59
2022/06/07 03:45:06;;;;;;;6.73;6.13;;;11.60;99.90;;;;;;5092803;28;20202;-58
2022/06/07 03:47:37;;;;;;;9.60;6.60;;;11.60;99.90;;;;;;5093396;28;20194;-59
2022/06/07 03:50:09;;;;;;;9.00;6.13;;;11.60;99.90;;;;;;5077321;28;20230;-59
2022/06/07 03:52:38;;;;;;;6.93;6.23;;;11.70;99.90;;;;;;5094919;28;20191;-58
2022/06/07 03:55:07;;;;;;;7.10;6.40;;;11.60;99.90;;;;;;5092170;28;20195;-58
2022/06/07 03:57:35;;;;;;;9.30;5.70;;;11.60;99.90;;;;;;5093612;28;20211;-58
2022/06/07 04:00:06;;;;;;;7.33;6.03;;;11.60;99.90;;;;;;5089273;28;20286;-58
2022/06/07 04:02:36;;;;;;;8.37;6.03;;;11.60;99.90;;;;;;5088523;28;20215;-59
2022/06/07 04:05:20;;;;;;;15.73;6.40;;;11.60;99.90;;;;;;5071225;28;20215;-59
2022/06/07 04:10:34;;;;;;;9.93;6.67;;;11.60;99.90;;;;;;5093173;28;20275;-58
2022/06/07 04:13:03;;;;;;;7.17;6.43;;;11.60;99.90;;;;;;5092940;28;20252;-58
2022/06/07 04:15:31;;;;;;;9.53;6.00;;;11.70;99.90;;;;;;5089194;28;20567;-58
2022/06/07 04:18:01;;;;;;;8.27;6.17;;;11.70;99.90;;;;;;5088214;28;20222;-58
2022/06/07 04:20:30;;;;;;;8.57;6.70;;;11.80;99.90;;;;;;5094750;28;20206;-59
2022/06/07 04:22:58;;;;;;;7.93;5.87;;;11.90;99.90;;;;;;5096390;28;20685;-58
2022/06/07 04:25:27;;;;;;;8.93;6.80;;;11.90;99.90;;;;;;5112370;28;20218;-59
2022/06/07 04:27:57;;;;;;;8.73;6.60;;;11.90;99.90;;;;;;5106961;28;20274;-58
2022/06/07 04:30:25;;;;;;;8.30;6.07;;;12.00;99.90;;;;;;5096906;28;20630;-59
2022/06/07 04:32:54;;;;;;;6.67;5.93;;;12.10;99.90;;;;;;5096418;28;20324;-59
2022/06/07 04:35:24;;;;;;;7.93;5.77;;;12.30;99.90;;;;;;5096911;28;20199;-58
2022/06/07 04:37:54;;;;;;;12.10;5.93;;;12.50;99.90;;;;;;5079661;28;20288;-59
2022/06/07 04:40:23;;;;;;;7.73;5.97;;;12.60;99.90;;;;;;5096856;28;20623;-58
2022/06/07 04:42:51;;;;;;;6.10;5.50;;;12.70;99.90;;;;;;5078874;28;20253;-59
2022/06/07 04:45:20;;;;;;;7.60;5.70;;;12.90;99.90;;;;;;5096786;28;20191;-59
2022/06/07 04:47:49;;;;;;;9.27;5.50;;;13.00;99.90;;;;;;5095364;28;20199;-58
2022/06/07 04:50:19;;;;;;;11.03;5.27;;;13.10;99.90;;;;;;5094127;28;20192;-58
2022/06/07 04:52:51;;;;;;;5.60;4.90;;;13.20;99.90;;;;;;5096284;28;20256;-58
2022/06/07 04:55:20;;;;;;;9.23;4.83;;;13.20;99.90;;;;;;5096352;28;20214;-58
2022/06/07 04:57:48;;;;;;;5.10;4.60;;;13.30;99.90;;;;;;5078479;28;20220;-58
2022/06/07 05:00:18;;;;;;;4.87;4.43;;;13.40;99.90;;;;;;5083744;28;20257;-58
2022/06/07 05:02:48;;;;;;;7.67;4.97;;;13.40;99.90;;;;;;5094037;28;20233;-59
2022/06/07 05:05:18;;;;;;;5.30;4.80;;;13.50;99.90;;;;;;5091620;28;20187;-58
2022/06/07 05:07:46;;;;;;;5.40;4.63;;;13.60;99.90;;;;;;5095894;28;20241;-58
2022/06/07 05:10:16;;;;;;;5.30;4.57;;;13.60;99.90;;;;;;5090798;28;20245;-58
2022/06/07 05:12:45;;;;;;;5.20;4.70;;;13.60;99.90;;;;;;5077402;28;20202;-59
2022/06/07 05:15:13;;;;;;;5.10;4.70;;;13.60;99.90;;;;;;5095473;28;20847;-59
2022/06/07 05:17:42;;;;;;;5.87;4.80;;;13.60;99.90;;;;;;5098342;28;20870;-59
2022/06/07 05:20:11;;;;;;;5.30;4.80;;;13.70;99.90;;;;;;5096278;28;20266;-59
2022/06/07 05:22:39;;;;;;;5.23;4.70;;;13.80;99.90;;;;;;5101607;28;20191;-59
2022/06/07 05:25:09;;;;;;;9.67;5.13;;;13.80;99.90;;;;;;5087509;28;20231;-59
2022/06/07 05:27:45;;;;;;;5.17;4.80;;;13.80;99.90;;;;;;5090740;28;20782;-58
2022/06/07 05:30:16;;;;;;;8.37;5.07;;;13.80;99.90;;;;;;5095166;28;20192;-58
2022/06/07 05:33:23;;;;;;;7.93;4.87;;;13.90;99.90;;;;;;5092889;28;20199;-59
2022/06/07 05:35:51;;;;;;;7.33;4.50;;;14.00;99.90;;;;;;5082710;28;20191;-58
2022/06/07 05:38:21;;;;;;;7.20;4.33;;;14.00;99.90;;;;;;5096269;28;20227;-58
2022/06/07 05:40:49;;;;;;;5.53;4.53;;;14.00;99.90;;;;;;5084750;28;20196;-58
2022/06/07 05:43:20;;;;;;;6.87;5.03;;;14.10;99.90;;;;;;5101515;28;20188;-58
2022/06/07 05:45:49;;;;;;;4.63;4.20;;;14.20;99.90;;;;;;5094101;28;20207;-58
2022/06/07 05:48:17;;;;;;;4.70;4.27;;;14.30;99.90;;;;;;5099242;28;20191;-58
2022/06/07 05:50:48;;;;;;;4.80;3.83;;;14.40;99.90;;;;;;5094864;28;20198;-59
2022/06/07 05:53:18;;;;;;;6.83;3.90;;;14.50;99.90;;;;;;5095381;28;20211;-59
2022/06/07 05:55:46;;;;;;;8.37;4.37;;;14.70;99.90;;;;;;5084271;28;20195;-59
2022/06/07 05:58:14;;;;;;;5.30;3.67;;;14.70;99.90;;;;;;5093703;28;20230;-59
2022/06/07 06:00:44;;;;;;;6.77;3.80;;;14.70;99.90;;;;;;5076741;28;20198;-58
2022/06/07 06:03:13;;;;;;;4.40;3.97;;;14.80;99.90;;;;;;5077004;28;20206;-58
2022/06/07 06:05:46;;;;;;;4.37;4.03;;;14.80;99.90;;;;;;5087212;28;20288;-58
2022/06/07 06:11:06;;;;;;;5.57;3.27;;;15.00;99.90;;;;;;5076666;28;20698;-58
2022/06/07 06:13:35;;;;;;;6.03;3.17;;;15.10;99.90;;;;;;5094885;28;20728;-59
2022/06/07 06:16:09;;;;;;;3.77;3.03;;;15.10;99.90;;;;;;5088614;28;20302;-58
2022/06/07 06:18:37;;;;;;;3.87;3.40;;;15.20;99.90;;;;;;5087668;28;20255;-58
2022/06/07 06:21:07;;;;;;;6.50;3.47;;;15.30;99.90;;;;;;5104396;28;20242;-58
2022/06/07 06:23:36;;;;;;;5.80;3.13;;;15.40;99.90;;;;;;5072153;28;20188;-58
2022/06/07 06:26:09;;;;;;;5.50;3.00;;;15.50;99.90;;;;;;5094635;28;20232;-58
2022/06/07 06:28:38;;;;;;;4.13;3.73;;;15.60;99.90;;;;;;5086837;28;20235;-58
2022/06/07 06:31:10;;;;;;;6.77;3.70;;;15.60;99.90;;;;;;5094707;28;20222;-58
2022/06/07 06:33:41;;;;;;;5.33;2.87;;;15.60;99.90;;;;;;5094253;28;20283;-59
2022/06/07 06:36:13;;;;;;;3.13;2.93;;;15.60;99.90;;;;;;5100555;28;20199;-58
2022/06/07 06:38:43;;;;;;;4.33;3.23;;;15.60;99.90;;;;;;5082182;28;20935;-58
2022/06/07 06:41:13;;;;;;;3.73;2.97;;;15.70;99.90;;;;;;5088755;28;20231;-58
2022/06/07 06:43:42;;;;;;;5.00;3.10;;;15.70;99.90;;;;;;5093082;28;21760;-58
2022/06/07 06:46:15;;;;;;;3.23;3.00;;;15.80;99.90;;;;;;5089503;28;20247;-59
2022/06/07 06:48:44;;;;;;;2.87;2.67;;;15.80;99.90;;;;;;5085265;28;20548;-59
2022/06/07 06:51:15;;;;;;;2.77;2.63;;;15.90;99.90;;;;;;5078807;28;20200;-59
2022/06/07 06:53:44;;;;;;;2.50;2.40;;;15.90;99.90;;;;;;5076701;28;20559;-59
2022/06/07 06:56:14;;;;;;;6.03;2.80;;;15.90;99.90;;;;;;5094525;28;20198;-58
2022/06/07 06:58:43;;;;;;;3.03;2.77;;;15.90;99.90;;;;;;5093041;28;20701;-58
2022/06/07 07:01:19;;;;;;;4.50;2.87;;;15.90;99.90;;;;;;5093641;28;20638;-59
2022/06/07 07:03:47;;;;;;;2.80;2.60;;;16.00;99.90;;;;;;5094335;28;20187;-59
2022/06/07 07:06:17;;;;;;;2.90;2.80;;;16.10;99.90;;;;;;5093821;28;20339;-59
2022/06/07 07:08:47;;;;;;;6.20;2.90;;;16.10;99.90;;;;;;5094080;28;20261;-59
2022/06/07 07:11:18;;;;;;;5.50;2.50;;;16.20;99.90;;;;;;5112564;28;20193;-58
2022/06/07 07:13:47;;;;;;;3.37;2.60;;;16.20;99.90;;;;;;5078937;28;20281;-59
2022/06/07 07:16:20;;;;;;;4.03;2.47;;;16.30;99.90;;;;;;5090808;28;20216;-59
2022/06/07 07:18:49;;;;;;;3.37;2.13;;;16.30;99.90;;;;;;5110638;28;20217;-58
2022/06/07 07:21:19;;;;;;;7.20;2.67;;;16.40;99.90;;;;;;5093875;28;20202;-59
2022/06/07 07:23:48;;;;;;;2.27;2.17;;;16.60;99.90;;;;;;5093710;28;20196;-59
2022/06/07 07:26:20;;;;;;;2.27;2.17;;;16.60;99.90;;;;;;5093592;28;20198;-59
2022/06/07 07:28:50;;;;;;;4.37;2.10;;;16.60;99.90;;;;;;5095564;28;20218;-59
2022/06/07 07:31:24;;;;;;;4.43;2.23;;;16.70;99.90;;;;;;5107450;28;20194;-58
2022/06/07 07:33:54;;;;;;;2.63;2.23;;;16.80;99.90;;;;;;5074063;28;20227;-59
2022/06/07 07:36:22;;;;;;;2.00;1.80;;;16.80;99.90;;;;;;5093665;28;20257;-59
2022/06/07 07:38:51;;;;;;;1.60;1.50;;;16.70;99.90;;;;;;5093487;28;20276;-59
2022/06/07 07:41:22;;;;;;;4.47;1.80;;;16.80;99.90;;;;;;5084391;28;20202;-58
2022/06/07 07:43:55;;;;;;;2.47;1.90;;;16.80;99.90;;;;;;5099276;28;20223;-58
2022/06/07 07:46:27;;;;;;;2.87;1.80;;;16.80;99.90;;;;;;5100400;28;20302;-59
2022/06/07 07:48:56;;;;;;;2.40;2.00;;;16.90;99.90;;;;;;5107960;28;20768;-59
2022/06/07 07:51:26;;;;;;;5.50;1.60;;;16.90;99.90;;;;;;5093091;28;20187;-59
2022/06/07 07:53:56;;;;;;;1.80;1.70;;;16.90;99.90;;;;;;5083167;28;20291;-59
2022/06/07 07:56:26;;;;;;;1.97;1.77;;;17.00;99.90;;;;;;5087301;28;20695;-58
2022/06/07 07:58:55;;;;;;;2.10;1.90;;;17.10;99.90;;;;;;5093283;28;20692;-59
2022/06/07 08:01:27;;;;;;;2.33;1.80;;;17.30;99.90;;;;;;5090875;28;20194;-59
2022/06/07 08:03:58;;;;;;;2.20;1.77;;;17.40;99.90;;;;;;5092929;28;20215;-59
2022/06/07 08:06:29;;;;;;;3.33;1.80;;;17.40;99.90;;;;;;5063852;28;20287;-58
2022/06/07 08:09:01;;;;;;;1.90;1.80;;;17.40;99.90;;;;;;5038333;28;20577;-59
2022/06/07 08:11:32;;;;;;;2.07;1.80;;;17.30;99.90;;;;;;5086007;28;20674;-59
2022/06/07 08:14:01;;;;;;;2.60;1.80;;;17.30;99.90;;;;;;5092553;28;20211;-58
2022/06/07 08:16:32;;;;;;;9.07;2.10;;;17.40;99.90;;;;;;5088245;28;20665;-58
2022/06/07 08:19:08;;;;;;;2.10;2.00;;;17.30;99.90;;;;;;5093198;28;20233;-58
2022/06/07 08:21:38;;;;;;;3.87;1.90;;;17.40;99.90;;;;;;5079834;28;20659;-59
2022/06/07 08:24:07;;;;;;;2.03;1.87;;;17.50;99.90;;;;;;5092907;28;20284;-58
2022/06/07 08:26:36;;;;;;;1.80;1.70;;;17.60;99.90;;;;;;5088226;28;20321;-59
2022/06/07 08:29:05;;;;;;;1.80;1.70;;;17.70;99.90;;;;;;5086454;28;20215;-59
2022/06/07 08:31:35;;;;;;;6.50;1.90;;;17.70;99.90;;;;;;5108908;28;20199;-59
2022/06/07 08:39:37;;;;;;;3.80;2.57;;;18.10;99.90;;;;;;5085274;28;20268;-59
2022/06/07 08:42:17;;;;;;;3.40;2.70;;;18.40;99.90;;;;;;5092301;28;20194;-59
2022/06/07 08:44:52;;;;;;;3.23;2.50;;;18.40;99.90;;;;;;5087214;28;20195;-59
2022/06/07 08:47:30;;;;;;;4.13;3.10;;;18.40;99.90;;;;;;5092711;28;20277;-59
2022/06/07 08:50:01;;;;;;;4.33;3.73;;;18.30;99.90;;;;;;5093104;28;20255;-58
2022/06/07 08:52:33;;;;;;;3.43;3.20;;;18.30;99.90;;;;;;5104492;28;20650;-58
2022/06/07 08:55:11;;;;;;;7.60;3.40;;;18.20;99.90;;;;;;5095892;28;20191;-59
2022/06/07 08:57:42;;;;;;;4.37;3.97;;;18.00;99.90;;;;;;5089196;28;20278;-59
2022/06/07 09:00:21;;;;;;;6.23;3.47;;;18.00;99.90;;;;;;5092354;28;20215;-59
2022/06/07 09:03:20;;;;;;;6.67;4.10;;;18.00;99.90;;;;;;5079047;28;20806;-59
2022/06/07 09:05:58;;;;;;;6.77;4.30;;;18.00;99.90;;;;;;5101449;28;20252;-59
2022/06/07 09:08:34;;;;;;;6.37;4.97;;;17.90;99.90;;;;;;5096341;28;20270;-59
2022/06/07 09:13:53;;;;;;;6.57;4.80;;;17.60;99.90;;;;;;5075675;28;20201;-58
2022/06/07 09:16:21;;;;;;;4.60;4.20;;;17.50;99.90;;;;;;5096105;28;20219;-59
2022/06/07 09:18:53;;;;;;;5.20;4.80;;;17.30;99.90;;;;;;5097331;28;20242;-58
2022/06/07 09:21:29;;;;;;;5.97;4.40;;;17.20;99.90;;;;;;5100218;28;20203;-58
2022/06/07 09:23:58;;;;;;;4.83;4.43;;;17.10;99.90;;;;;;5068724;28;20234;-59
2022/06/07 09:26:31;;;;;;;5.10;4.70;;;17.10;99.90;;;;;;5089329;28;20208;-59
2022/06/07 09:29:13;;;;;;;5.90;5.10;;;17.00;99.90;;;;;;5089644;28;20229;-59
2022/06/07 09:31:44;;;;;;;5.53;4.37;;;17.00;99.90;;;;;;5083156;28;20206;-58
2022/06/07 09:34:21;;;;;;;4.53;3.57;;;17.00;99.90;;;;;;5077887;28;20222;-58
2022/06/07 09:36:58;;;;;;;6.17;4.17;;;17.10;99.90;;;;;;5093841;28;20272;-59
2022/06/07 09:39:30;;;;;;;4.97;3.80;;;17.10;99.90;;;;;;5086707;28;20264;-58
2022/06/07 09:42:12;;;;;;;5.47;3.87;;;17.30;99.90;;;;;;5095363;28;20270;-59
2022/06/07 09:44:54;;;;;;;4.33;3.80;;;17.30;99.90;;;;;;5078723;28;20277;-59
2022/06/07 09:47:25;;;;;;;6.27;2.97;;;17.10;99.90;;;;;;5089011;28;20203;-58
2022/06/07 09:49:59;;;;;;;3.60;3.03;;;17.00;99.90;;;;;;5097369;28;20563;-58
2022/06/07 09:52:31;;;;;;;3.30;3.00;;;17.10;99.90;;;;;;5089524;28;20248;-59
2022/06/07 09:55:04;;;;;;;5.87;3.23;;;17.30;99.90;;;;;;5107735;28;20203;-58
2022/06/07 09:57:38;;;;;;;5.50;3.30;;;17.50;99.90;;;;;;5094571;28;20226;-59
2022/06/07 10:00:17;;;;;;;3.60;3.30;;;17.60;99.90;;;;;;5097572;28;20320;-59
2022/06/07 10:03:31;;;;;;;3.50;2.70;;;17.70;99.90;;;;;;5094846;28;20206;-59
2022/06/07 10:06:19;;;;;;;2.97;2.77;;;17.90;99.90;;;;;;5106874;28;20183;-59
2022/06/07 10:09:08;;;;;;;2.80;2.60;;;17.80;99.90;;;;;;5084985;28;20207;-58
2022/06/07 10:11:41;;;;;;;2.40;2.30;;;17.60;99.90;;;;;;5077076;28;20271;-58
2022/06/07 10:14:23;;;;;;;2.40;2.30;;;17.70;99.90;;;;;;5088139;28;20237;-59
2022/06/07 10:17:04;;;;;;;3.03;2.70;;;17.60;99.90;;;;;;5094897;28;20253;-59
2022/06/07 10:19:43;;;;;;;3.07;2.60;;;17.70;99.90;;;;;;5076517;28;20253;-59
2022/06/07 10:22:33;;;;;;;2.70;2.50;;;17.80;99.90;;;;;;5093198;28;20204;-59
2022/06/07 10:25:12;;;;;;;2.67;2.20;;;17.90;99.90;;;;;;5094189;28;20551;-58
2022/06/07 10:28:00;;;;;;;2.77;2.57;;;18.10;99.90;;;;;;5080241;28;20197;-58
2022/06/07 10:30:36;;;;;;;2.80;2.70;;;18.20;99.90;;;;;;5057616;28;20195;-59
2022/06/07 10:33:33;;;;;;;3.13;2.93;;;18.10;99.90;;;;;;5090306;28;20198;-59
2022/06/07 10:36:10;;;;;;;2.90;2.60;;;18.10;99.90;;;;;;5069497;28;20207;-59
2022/06/07 10:38:55;;;;;;;2.63;2.40;;;18.20;99.90;;;;;;5041626;28;20197;-59
2022/06/07 10:41:33;;;;;;;4.17;2.67;;;18.20;99.90;;;;;;5064856;28;20219;-58
2022/06/07 10:44:09;;;;;;;2.80;2.30;;;18.30;99.90;;;;;;5052321;28;20279;-59
2022/06/07 10:46:41;;;;;;;2.97;2.63;;;18.10;99.90;;;;;;5045796;28;20202;-59
2022/06/07 10:49:22;;;;;;;3.10;2.90;;;18.10;99.90;;;;;;5053800;28;20652;-58
2022/06/07 10:54:55;;;;;;;2.70;2.60;;;18.20;99.90;;;;;;5049241;28;20200;-58
2022/06/07 10:57:33;;;;;;;2.93;2.83;;;18.30;99.90;;;;;;5086208;28;20204;-59
2022/06/07 11:00:12;;;;;;;3.50;3.20;;;18.30;99.90;;;;;;5082265;28;20739;-58
2022/06/07 11:02:51;;;;;;;3.33;3.13;;;18.40;99.90;;;;;;5053940;28;20195;-59
2022/06/07 11:11:11;;;;;;;3.50;3.30;;;18.40;99.90;;;;;;5053286;28;20250;-58
2022/06/07 11:13:50;;;;;;;3.30;3.03;;;18.20;99.90;;;;;;5053591;28;20210;-58
2022/06/07 11:16:23;;;;;;;4.30;3.37;;;18.30;99.90;;;;;;5053539;28;20216;-59
2022/06/07 11:18:52;;;;;;;4.53;3.43;;;18.40;99.90;;;;;;5053352;28;20205;-58
2022/06/07 11:21:30;;;;;;;4.00;3.40;;;18.40;99.90;;;;;;5048848;28;20213;-59
2022/06/07 11:24:07;;;;;;;5.53;3.83;;;18.50;99.90;;;;;;5047343;28;20296;-58
2022/06/07 11:27:03;;;;;;;4.20;3.77;;;18.60;99.90;;;;;;5048532;28;20683;-58
2022/06/07 11:29:33;;;;;;;4.53;4.13;;;18.30;99.90;;;;;;5052960;28;20189;-58
2022/06/07 11:32:04;;;;;;;3.87;3.40;;;18.20;99.90;;;;;;5053799;28;20662;-59
2022/06/07 11:34:35;;;;;;;5.03;3.93;;;18.10;99.90;;;;;;5053273;28;20232;-58
2022/06/07 11:37:28;;;;;;;7.80;3.73;;;18.00;99.90;;;;;;5069846;28;20701;-58
2022/06/07 11:39:57;;;;;;;5.47;4.30;;;18.00;99.90;;;;;;5091470;28;20289;-58
2022/06/07 11:42:33;;;;;;;5.70;4.83;;;18.20;99.90;;;;;;5093418;28;20606;-58
2022/06/07 11:45:22;;;;;;;5.00;4.60;;;18.30;99.90;;;;;;5074106;28;20206;-58
2022/06/07 11:48:17;;;;;;;6.17;4.40;;;18.40;99.90;;;;;;5093678;28;20187;-58
2022/06/07 11:50:56;;;;;;;5.53;4.57;;;18.20;99.90;;;;;;5091848;28;20199;-58
2022/06/07 11:53:29;;;;;;;5.07;4.67;;;18.10;99.90;;;;;;5093262;28;20528;-58
2022/06/07 11:56:22;;;;;;;5.03;4.53;;;18.00;99.90;;;;;;5094826;28;20235;-58
2022/06/07 11:59:04;;;;;;;5.30;4.90;;;18.10;99.90;;;;;;5072929;28;20210;-58
2022/06/07 12:01:44;;;;;;;5.23;4.70;;;18.10;99.90;;;;;;5083328;28;20605;-58
2022/06/07 12:04:39;;;;;;;5.47;4.93;;;18.10;99.90;;;;;;5069039;28;20273;-57
2022/06/07 12:07:19;;;;;;;5.40;4.90;;;18.20;99.90;;;;;;5079634;28;20200;-58
2022/06/07 12:09:50;;;;;;;4.90;4.60;;;18.10;99.90;;;;;;5081586;28;20274;-58
2022/06/07 12:12:23;;;;;;;6.20;5.40;;;18.20;99.90;;;;;;5090907;28;20265;-58
2022/06/07 12:15:01;;;;;;;5.90;5.40;;;18.20;99.90;;;;;;5106227;28;20539;-59
2022/06/07 12:17:31;;;;;;;6.03;5.47;;;18.50;99.90;;;;;;5093139;28;20215;-58
2022/06/07 12:20:00;;;;;;;6.53;5.97;;;18.70;99.90;;;;;;5082843;28;20294;-58
2022/06/07 12:22:39;;;;;;;7.10;6.50;;;18.90;99.90;;;;;;5087100;28;20542;-58
2022/06/07 12:25:17;;;;;;;6.67;6.00;;;19.00;99.90;;;;;;5080689;28;20229;-59
2022/06/07 12:27:48;;;;;;;7.80;6.80;;;19.30;99.90;;;;;;5073512;28;20286;-58
2022/06/07 12:30:27;;;;;;;7.03;6.30;;;19.60;99.90;;;;;;5083449;28;20215;-58
2022/06/07 12:32:56;;;;;;;6.80;6.23;;;19.70;99.90;;;;;;5072854;28;20298;-58
2022/06/07 12:35:27;;;;;;;10.73;7.30;;;19.60;99.90;;;;;;5090159;28;20187;-58
2022/06/07 12:37:58;;;;;;;8.13;6.83;;;19.50;99.90;;;;;;5063274;28;20224;-59
2022/06/07 12:40:33;;;;;;;9.67;6.77;;;19.50;99.90;;;;;;5087302;28;20299;-58
2022/06/07 12:43:02;;;;;;;7.13;6.43;;;19.40;99.90;;;;;;5083973;28;20666;-58
2022/06/07 12:45:34;;;;;;;7.60;6.53;;;19.40;99.90;;;;;;5078636;28;20725;-58
2022/06/07 12:48:12;;;;;;;6.83;6.23;;;19.50;99.90;;;;;;5078958;28;20214;-58
2022/06/07 12:50:43;;;;;;;7.57;6.97;;;19.60;99.90;;;;;;5092643;28;20194;-58
2022/06/07 12:53:19;;;;;;;7.30;6.60;;;19.90;99.90;;;;;;5093867;28;20223;-58
2022/06/07 12:55:55;;;;;;;7.80;7.00;;;20.10;99.90;;;;;;5077765;28;20217;-59
2022/06/07 12:58:24;;;;;;;7.50;6.53;;;20.00;99.90;;;;;;5078427;28;20250;-58
2022/06/07 13:00:55;;;;;;;6.50;5.90;;;20.20;99.90;;;;;;5096446;28;20246;-58
2022/06/07 13:03:28;;;;;;;7.57;6.50;;;20.00;99.90;;;;;;5059811;28;20203;-58
2022/06/07 13:06:01;;;;;;;6.60;6.10;;;19.90;99.90;;;;;;5076099;28;20891;-58
2022/06/07 13:08:35;;;;;;;7.97;6.40;;;19.90;99.90;;;;;;5090278;28;20187;-59
2022/06/07 13:11:06;;;;;;;8.17;6.50;;;20.20;99.90;;;;;;5096407;28;20233;-59
2022/06/07 13:13:37;;;;;;;5.73;5.10;;;20.40;99.90;;;;;;5095232;28;20257;-59
2022/06/07 13:16:31;;;;;;;5.80;5.40;;;20.50;99.90;;;;;;5096077;28;20219;-58
2022/06/07 13:19:02;;;;;;;5.37;4.97;;;20.60;99.90;;;;;;5089705;28;20204;-59
2022/06/07 13:21:34;;;;;;;5.73;5.20;;;20.80;99.90;;;;;;5095270;28;20223;-58
2022/06/07 13:24:03;;;;;;;5.40;4.90;;;20.90;99.90;;;;;;5089614;28;20211;-58
2022/06/07 13:26:41;;;;;;;5.70;5.30;;;20.90;99.90;;;;;;5076165;28;20196;-59
2022/06/07 13:29:16;;;;;;;4.50;4.23;;;20.90;99.90;;;;;;5073916;28;20201;-58
2022/06/07 13:31:55;;;;;;;4.80;4.40;;;20.80;99.90;;;;;;5080253;28;20262;-58
2022/06/07 13:34:26;;;;;;;5.80;4.70;;;20.80;99.90;;;;;;5095810;28;20195;-59
2022/06/07 13:37:13;;;;;;;4.90;4.40;;;20.60;99.90;;;;;;5090571;28;20312;-58
2022/06/07 13:39:44;;;;;;;4.27;3.90;;;20.50;99.90;;;;;;5077572;28;20569;-58
2022/06/07 13:42:20;;;;;;;5.43;3.60;;;20.30;99.90;;;;;;5070525;28;20600;-58